Casper, WY

2:10 PM MDT on July 24, 2014 (GMT -0600)
North of Casper, WY (KWYBARNU1) Elev 5276 ft | 42.91 °N, 106.35 °W | Change Station
Active Advisory: Special Statement, Fire Weather Warning Active Notice: Record Report

Current weather conditions updated 4 minutes ago

Overcast
Overcast
92.3 °F
Feels Like 88 °F
N
4.2
Wind Variable Wind from North
Gusts 9.3 mph

Today is forecast to be Cooler than yesterday.

Today
High -- | Low -- °F
--% Chance of Precip.
Yesterday
High -- | Low -- °F
Precip. -- in
5:48 AM 8:34 PM
Waning Crescent, 4% visible
Pressure 29.75 in
Visibility 10.0 miles
Clouds Few 12000 ft
Heat Index 88 °F
Dew Point 42 °F
Humidity 18%
Rainfall 0.09 in
Snow Depth 0 in
UV 11 out of 12
Pollen 8.00 out of 12
Air Quality Not available.
Flu Activity Not available.
METAR KCPR 241953Z 24020G31KT 10SM FEW120 32/01 A3002 RMK AO2 PK WND 24031/1951 SLP074 T03220011

More Conditions Fewer Conditions

Pressure 29.75 in
Visibility 10.0 miles
Clouds Few 12000 ft
Heat Index 88 °F
Dew Point 42 °F
Humidity 18%
Rainfall 0.09 in
Snow Depth 0 in
UV 11 out of 12
Pollen 8.00 out of 12
Air Quality Not available.
Flu Activity Not available.
METAR KCPR 241953Z 24020G31KT 10SM FEW120 32/01 A3002 RMK AO2 PK WND 24031/1951 SLP074 T03220011

More Conditions Fewer Conditions

10-Day Weather Forecast

Almanac

Astronomy

Jul. 24, 2014 Rise Set
Actual Time 5:48 AM MDT 8:34 PM MDT
Civil Twilight 5:15 AM MDT 9:07 PM MDT
Nautical Twilight 4:33 AM MDT 9:48 PM MDT
Astronomical Twilight 3:45 AM MDT 10:36 PM MDT
Moon 3:59 AM MDT 6:50 PM MDT
Length of Visible Light 15h 51m
Length of Day
14h 45m
Tomorrow will be 1m 57s shorter.
Waning Crescent, 4% of the Moon is Illuminated
Today
Waning Crescent
Jul 26
New
Aug 3
First Quarter
Aug 10
Full
Aug 17
Last Quarter

Today's Extremes

State Highs State Lows

Community

WunderPhotos

Upload Photos

1,737,108 photos uploaded!

Nearby

Snow Depth

Station Depth Elevation
Casper Mountain 0 in 7850 ft
Grave Springs 0 in 8550 ft
Middle Powder 0 in 7760 ft
Sandstone R.S. 1 in 8150 ft
Townsend Creek 0 in 8700 ft

Earthquake Activity

City Distance Mag. Time & Date
No recent earthquake activity has been reported nearby.
Minimum magnitude displayed is 2.5.

Coastal Water Temperatures

Place Temperature
No Stations Reporting

Nearby Weather Stations

Station Location Temp. Heat Index Dew Point Humidity Wind Precip. Elev Updated Type
HADS NORTH PLATTE RIVER AT CASPER WY, Casper, WY 97 °F 92 °F - - North  at  - 0.00 in / hr 5100 ft 12:30 PM MDT MADIS
North of Casper, WY, Bar Nunn, WY 92.3 °F 88 °F 42 °F 18% North  at  4.2 mph 0.00 in / hr 5276 ft 2:05 PM MDT Normal
North of Rolling Hills WY, Glenrock, WY 92.1 °F 88 °F 38 °F 15% SW  at  20.0 mph 0.00 in / hr 5421 ft 2:10 PM MDT Rapid Fire
RAWS CASPER MOUNTAIN WY, Casper, WY 81 °F 79 °F 36 °F 20% SW  at  16 mph 0.00 in / hr 7740 ft 12:52 PM MDT MADIS

Show More Stations Show Fewer Stations